sensor_id;sensor_type;location;lat;lon;timestamp;P1;durP1;ratioP1;P2;durP2;ratioP2
44276;SDS011;29973;43.742;1.236;2022-07-18T00:00:23;4.07;;;3.58;;
44276;SDS011;29973;43.742;1.236;2022-07-18T00:02:49;6.65;;;3.35;;
44276;SDS011;29973;43.742;1.236;2022-07-18T00:05:15;6.47;;;3.38;;
44276;SDS011;29973;43.742;1.236;2022-07-18T00:07:40;5.05;;;3.42;;
44276;SDS011;29973;43.742;1.236;2022-07-18T00:10:06;7.88;;;3.40;;
44276;SDS011;29973;43.742;1.236;2022-07-18T00:12:32;5.97;;;3.42;;
44276;SDS011;29973;43.742;1.236;2022-07-18T00:14:58;4.80;;;3.15;;
44276;SDS011;29973;43.742;1.236;2022-07-18T00:17:24;4.72;;;3.10;;
44276;SDS011;29973;43.742;1.236;2022-07-18T00:19:50;6.13;;;3.28;;
44276;SDS011;29973;43.742;1.236;2022-07-18T00:22:16;4.43;;;3.25;;
44276;SDS011;29973;43.742;1.236;2022-07-18T00:24:42;4.35;;;3.42;;
44276;SDS011;29973;43.742;1.236;2022-07-18T00:27:08;4.03;;;3.20;;
44276;SDS011;29973;43.742;1.236;2022-07-18T00:29:34;4.75;;;3.72;;
44276;SDS011;29973;43.742;1.236;2022-07-18T00:32:04;5.67;;;3.63;;
44276;SDS011;29973;43.742;1.236;2022-07-18T00:34:31;4.15;;;3.30;;
44276;SDS011;29973;43.742;1.236;2022-07-18T00:36:57;7.28;;;3.30;;
44276;SDS011;29973;43.742;1.236;2022-07-18T00:39:23;6.53;;;3.53;;
44276;SDS011;29973;43.742;1.236;2022-07-18T00:41:49;3.53;;;3.05;;
44276;SDS011;29973;43.742;1.236;2022-07-18T00:44:19;4.85;;;3.40;;
44276;SDS011;29973;43.742;1.236;2022-07-18T00:46:47;8.15;;;3.53;;
44276;SDS011;29973;43.742;1.236;2022-07-18T00:49:14;4.53;;;3.83;;
44276;SDS011;29973;43.742;1.236;2022-07-18T00:51:40;4.00;;;3.25;;
44276;SDS011;29973;43.742;1.236;2022-07-18T00:54:05;5.65;;;3.60;;
44276;SDS011;29973;43.742;1.236;2022-07-18T00:56:31;4.22;;;3.47;;
44276;SDS011;29973;43.742;1.236;2022-07-18T00:58:57;5.50;;;3.70;;
44276;SDS011;29973;43.742;1.236;2022-07-18T01:01:23;4.70;;;3.65;;
44276;SDS011;29973;43.742;1.236;2022-07-18T01:04:07;5.93;;;3.67;;
44276;SDS011;29973;43.742;1.236;2022-07-18T01:06:33;4.85;;;3.70;;
44276;SDS011;29973;43.742;1.236;2022-07-18T01:08:59;4.30;;;3.53;;
44276;SDS011;29973;43.742;1.236;2022-07-18T01:11:25;4.00;;;3.58;;
44276;SDS011;29973;43.742;1.236;2022-07-18T01:13:51;6.95;;;4.22;;
44276;SDS011;29973;43.742;1.236;2022-07-18T01:16:17;5.20;;;3.65;;
44276;SDS011;29973;43.742;1.236;2022-07-18T01:18:44;4.43;;;3.38;;
44276;SDS011;29973;43.742;1.236;2022-07-18T01:21:13;3.70;;;3.40;;
44276;SDS011;29973;43.742;1.236;2022-07-18T01:23:39;4.38;;;3.78;;
44276;SDS011;29973;43.742;1.236;2022-07-18T01:26:05;5.18;;;3.97;;
44276;SDS011;29973;43.742;1.236;2022-07-18T01:28:32;6.30;;;4.20;;
44276;SDS011;29973;43.742;1.236;2022-07-18T01:30:57;6.28;;;4.00;;
44276;SDS011;29973;43.742;1.236;2022-07-18T01:33:23;4.18;;;3.78;;
44276;SDS011;29973;43.742;1.236;2022-07-18T01:35:49;7.22;;;4.40;;
44276;SDS011;29973;43.742;1.236;2022-07-18T01:38:15;5.47;;;4.10;;
44276;SDS011;29973;43.742;1.236;2022-07-18T01:40:42;5.88;;;4.28;;
44276;SDS011;29973;43.742;1.236;2022-07-18T01:43:08;6.00;;;4.35;;
44276;SDS011;29973;43.742;1.236;2022-07-18T01:45:34;9.38;;;4.70;;
44276;SDS011;29973;43.742;1.236;2022-07-18T01:48:00;7.22;;;4.35;;
44276;SDS011;29973;43.742;1.236;2022-07-18T01:50:26;4.72;;;4.10;;
44276;SDS011;29973;43.742;1.236;2022-07-18T01:52:52;7.15;;;4.35;;
44276;SDS011;29973;43.742;1.236;2022-07-18T01:55:18;4.78;;;4.28;;
44276;SDS011;29973;43.742;1.236;2022-07-18T01:57:43;6.38;;;4.43;;
44276;SDS011;29973;43.742;1.236;2022-07-18T02:00:10;6.43;;;3.90;;
44276;SDS011;29973;43.742;1.236;2022-07-18T02:02:36;5.63;;;4.22;;
44276;SDS011;29973;43.742;1.236;2022-07-18T02:05:04;5.78;;;4.50;;
44276;SDS011;29973;43.742;1.236;2022-07-18T02:07:34;6.10;;;4.38;;
44276;SDS011;29973;43.742;1.236;2022-07-18T02:10:03;7.45;;;4.97;;
44276;SDS011;29973;43.742;1.236;2022-07-18T02:12:33;5.00;;;4.50;;
44276;SDS011;29973;43.742;1.236;2022-07-18T02:15:00;4.95;;;4.32;;
44276;SDS011;29973;43.742;1.236;2022-07-18T02:17:25;7.90;;;4.68;;
44276;SDS011;29973;43.742;1.236;2022-07-18T02:19:51;4.65;;;4.10;;
44276;SDS011;29973;43.742;1.236;2022-07-18T02:22:17;5.03;;;4.20;;
44276;SDS011;29973;43.742;1.236;2022-07-18T02:24:43;7.13;;;4.45;;
44276;SDS011;29973;43.742;1.236;2022-07-18T02:27:09;6.00;;;4.25;;
44276;SDS011;29973;43.742;1.236;2022-07-18T02:29:35;7.95;;;4.07;;
44276;SDS011;29973;43.742;1.236;2022-07-18T02:32:01;7.28;;;4.47;;
44276;SDS011;29973;43.742;1.236;2022-07-18T02:34:27;5.35;;;4.70;;
44276;SDS011;29973;43.742;1.236;2022-07-18T02:36:53;6.88;;;4.88;;
44276;SDS011;29973;43.742;1.236;2022-07-18T02:39:19;5.82;;;4.43;;
44276;SDS011;29973;43.742;1.236;2022-07-18T02:41:44;6.40;;;4.70;;
44276;SDS011;29973;43.742;1.236;2022-07-18T02:44:10;6.20;;;4.63;;
44276;SDS011;29973;43.742;1.236;2022-07-18T02:46:36;5.10;;;4.53;;
44276;SDS011;29973;43.742;1.236;2022-07-18T02:49:02;5.32;;;4.60;;
44276;SDS011;29973;43.742;1.236;2022-07-18T02:51:28;7.28;;;4.68;;
44276;SDS011;29973;43.742;1.236;2022-07-18T02:53:54;5.07;;;4.45;;
44276;SDS011;29973;43.742;1.236;2022-07-18T02:56:20;7.82;;;5.15;;
44276;SDS011;29973;43.742;1.236;2022-07-18T02:58:45;8.75;;;5.20;;
44276;SDS011;29973;43.742;1.236;2022-07-18T03:01:11;6.78;;;5.00;;
44276;SDS011;29973;43.742;1.236;2022-07-18T03:03:37;6.00;;;4.95;;
44276;SDS011;29973;43.742;1.236;2022-07-18T03:06:03;10.48;;;5.07;;
44276;SDS011;29973;43.742;1.236;2022-07-18T03:08:29;6.10;;;4.97;;
44276;SDS011;29973;43.742;1.236;2022-07-18T03:10:54;5.43;;;4.90;;
44276;SDS011;29973;43.742;1.236;2022-07-18T03:13:20;6.70;;;4.38;;
44276;SDS011;29973;43.742;1.236;2022-07-18T03:15:46;7.50;;;4.85;;
44276;SDS011;29973;43.742;1.236;2022-07-18T03:18:11;6.03;;;5.30;;
44276;SDS011;29973;43.742;1.236;2022-07-18T03:20:37;6.63;;;5.32;;
44276;SDS011;29973;43.742;1.236;2022-07-18T03:23:04;8.63;;;4.80;;
44276;SDS011;29973;43.742;1.236;2022-07-18T03:25:30;7.82;;;4.75;;
44276;SDS011;29973;43.742;1.236;2022-07-18T03:27:56;7.20;;;5.55;;
44276;SDS011;29973;43.742;1.236;2022-07-18T03:30:22;5.28;;;4.72;;
44276;SDS011;29973;43.742;1.236;2022-07-18T03:32:48;5.40;;;4.90;;
44276;SDS011;29973;43.742;1.236;2022-07-18T03:35:14;6.63;;;5.55;;
44276;SDS011;29973;43.742;1.236;2022-07-18T03:37:40;7.70;;;4.90;;
44276;SDS011;29973;43.742;1.236;2022-07-18T03:40:06;7.32;;;5.88;;
44276;SDS011;29973;43.742;1.236;2022-07-18T03:42:35;7.55;;;5.38;;
44276;SDS011;29973;43.742;1.236;2022-07-18T03:45:02;7.32;;;5.22;;
44276;SDS011;29973;43.742;1.236;2022-07-18T03:47:28;6.88;;;4.97;;
44276;SDS011;29973;43.742;1.236;2022-07-18T03:49:54;8.25;;;5.55;;
44276;SDS011;29973;43.742;1.236;2022-07-18T03:52:20;6.15;;;5.30;;
44276;SDS011;29973;43.742;1.236;2022-07-18T03:54:45;6.57;;;5.90;;
44276;SDS011;29973;43.742;1.236;2022-07-18T03:57:11;7.95;;;5.57;;
44276;SDS011;29973;43.742;1.236;2022-07-18T03:59:37;5.53;;;5.00;;
44276;SDS011;29973;43.742;1.236;2022-07-18T04:02:02;7.30;;;4.90;;
44276;SDS011;29973;43.742;1.236;2022-07-18T04:04:28;5.55;;;4.95;;
44276;SDS011;29973;43.742;1.236;2022-07-18T04:06:54;5.75;;;4.88;;
44276;SDS011;29973;43.742;1.236;2022-07-18T04:09:24;6.78;;;5.40;;
44276;SDS011;29973;43.742;1.236;2022-07-18T04:11:50;6.32;;;5.28;;
44276;SDS011;29973;43.742;1.236;2022-07-18T04:14:16;5.80;;;4.72;;
44276;SDS011;29973;43.742;1.236;2022-07-18T04:16:41;6.38;;;4.53;;
44276;SDS011;29973;43.742;1.236;2022-07-18T04:19:08;6.72;;;5.00;;
44276;SDS011;29973;43.742;1.236;2022-07-18T04:21:34;6.35;;;5.03;;
44276;SDS011;29973;43.742;1.236;2022-07-18T04:24:00;5.65;;;5.05;;
44276;SDS011;29973;43.742;1.236;2022-07-18T04:26:26;7.25;;;4.97;;
44276;SDS011;29973;43.742;1.236;2022-07-18T04:28:52;6.55;;;4.80;;
44276;SDS011;29973;43.742;1.236;2022-07-18T04:31:17;6.20;;;5.05;;
44276;SDS011;29973;43.742;1.236;2022-07-18T04:33:43;5.90;;;5.05;;
44276;SDS011;29973;43.742;1.236;2022-07-18T04:36:09;5.88;;;5.00;;
44276;SDS011;29973;43.742;1.236;2022-07-18T04:38:35;5.72;;;5.07;;
44276;SDS011;29973;43.742;1.236;2022-07-18T04:41:03;8.20;;;5.03;;
44276;SDS011;29973;43.742;1.236;2022-07-18T04:43:30;7.93;;;5.05;;
44276;SDS011;29973;43.742;1.236;2022-07-18T04:45:56;6.32;;;5.38;;
44276;SDS011;29973;43.742;1.236;2022-07-18T04:48:22;5.50;;;4.82;;
44276;SDS011;29973;43.742;1.236;2022-07-18T04:50:47;8.38;;;5.35;;
44276;SDS011;29973;43.742;1.236;2022-07-18T04:53:13;7.57;;;5.40;;
44276;SDS011;29973;43.742;1.236;2022-07-18T04:55:39;6.50;;;4.85;;
44276;SDS011;29973;43.742;1.236;2022-07-18T04:58:05;6.03;;;5.15;;
44276;SDS011;29973;43.742;1.236;2022-07-18T05:00:30;5.32;;;4.78;;
44276;SDS011;29973;43.742;1.236;2022-07-18T05:02:57;6.55;;;5.13;;
44276;SDS011;29973;43.742;1.236;2022-07-18T05:05:23;5.97;;;5.30;;
44276;SDS011;29973;43.742;1.236;2022-07-18T05:07:51;5.82;;;5.13;;
44276;SDS011;29973;43.742;1.236;2022-07-18T05:10:18;7.72;;;4.47;;
44276;SDS011;29973;43.742;1.236;2022-07-18T05:12:47;6.05;;;4.72;;
44276;SDS011;29973;43.742;1.236;2022-07-18T05:15:15;6.80;;;5.22;;
44276;SDS011;29973;43.742;1.236;2022-07-18T05:17:42;5.93;;;4.65;;
44276;SDS011;29973;43.742;1.236;2022-07-18T05:20:09;6.10;;;4.47;;
44276;SDS011;29973;43.742;1.236;2022-07-18T05:22:39;5.57;;;5.07;;
44276;SDS011;29973;43.742;1.236;2022-07-18T05:25:05;10.80;;;5.00;;
44276;SDS011;29973;43.742;1.236;2022-07-18T05:27:32;4.82;;;4.40;;
44276;SDS011;29973;43.742;1.236;2022-07-18T05:29:58;5.63;;;5.03;;
44276;SDS011;29973;43.742;1.236;2022-07-18T05:32:24;5.63;;;4.65;;
44276;SDS011;29973;43.742;1.236;2022-07-18T05:34:50;6.47;;;4.80;;
44276;SDS011;29973;43.742;1.236;2022-07-18T05:37:16;7.13;;;4.72;;
44276;SDS011;29973;43.742;1.236;2022-07-18T05:39:42;6.38;;;4.70;;
44276;SDS011;29973;43.742;1.236;2022-07-18T05:42:08;5.63;;;4.32;;
44276;SDS011;29973;43.742;1.236;2022-07-18T05:44:34;4.68;;;4.22;;
44276;SDS011;29973;43.742;1.236;2022-07-18T05:46:59;7.53;;;5.35;;
44276;SDS011;29973;43.742;1.236;2022-07-18T05:49:25;5.15;;;4.65;;
44276;SDS011;29973;43.742;1.236;2022-07-18T05:51:51;7.00;;;4.78;;
44276;SDS011;29973;43.742;1.236;2022-07-18T05:54:16;5.22;;;4.60;;
44276;SDS011;29973;43.742;1.236;2022-07-18T05:56:46;6.28;;;4.20;;
44276;SDS011;29973;43.742;1.236;2022-07-18T05:59:12;7.97;;;4.43;;
44276;SDS011;29973;43.742;1.236;2022-07-18T06:01:39;5.28;;;4.25;;
44276;SDS011;29973;43.742;1.236;2022-07-18T06:04:05;5.30;;;4.68;;
44276;SDS011;29973;43.742;1.236;2022-07-18T06:06:30;4.85;;;4.35;;
44276;SDS011;29973;43.742;1.236;2022-07-18T06:08:56;5.95;;;4.75;;
44276;SDS011;29973;43.742;1.236;2022-07-18T06:11:22;5.53;;;4.80;;
44276;SDS011;29973;43.742;1.236;2022-07-18T06:13:48;7.72;;;4.55;;
44276;SDS011;29973;43.742;1.236;2022-07-18T06:16:14;4.60;;;4.18;;
44276;SDS011;29973;43.742;1.236;2022-07-18T06:18:40;7.43;;;4.53;;
44276;SDS011;29973;43.742;1.236;2022-07-18T06:21:05;4.80;;;4.32;;
44276;SDS011;29973;43.742;1.236;2022-07-18T06:23:32;6.68;;;4.30;;
44276;SDS011;29973;43.742;1.236;2022-07-18T06:25:57;7.47;;;4.40;;
44276;SDS011;29973;43.742;1.236;2022-07-18T06:28:24;5.18;;;4.00;;
44276;SDS011;29973;43.742;1.236;2022-07-18T06:30:56;4.97;;;3.95;;
44276;SDS011;29973;43.742;1.236;2022-07-18T06:33:22;5.68;;;4.80;;
44276;SDS011;29973;43.742;1.236;2022-07-18T06:35:48;6.53;;;4.28;;
44276;SDS011;29973;43.742;1.236;2022-07-18T06:38:14;7.65;;;4.22;;
44276;SDS011;29973;43.742;1.236;2022-07-18T06:40:40;5.05;;;4.20;;
44276;SDS011;29973;43.742;1.236;2022-07-18T06:43:06;5.70;;;4.93;;
44276;SDS011;29973;43.742;1.236;2022-07-18T06:45:32;5.57;;;4.43;;
44276;SDS011;29973;43.742;1.236;2022-07-18T06:47:58;5.68;;;4.20;;
44276;SDS011;29973;43.742;1.236;2022-07-18T06:50:24;4.45;;;4.05;;
44276;SDS011;29973;43.742;1.236;2022-07-18T06:52:50;8.57;;;4.53;;
44276;SDS011;29973;43.742;1.236;2022-07-18T06:55:16;6.55;;;4.40;;
44276;SDS011;29973;43.742;1.236;2022-07-18T06:57:42;8.20;;;4.63;;
44276;SDS011;29973;43.742;1.236;2022-07-18T07:00:08;8.40;;;4.40;;
44276;SDS011;29973;43.742;1.236;2022-07-18T07:02:39;5.15;;;3.90;;
44276;SDS011;29973;43.742;1.236;2022-07-18T07:07:32;6.05;;;4.05;;
44276;SDS011;29973;43.742;1.236;2022-07-18T07:09:58;10.82;;;4.60;;
44276;SDS011;29973;43.742;1.236;2022-07-18T07:12:24;4.80;;;3.83;;
44276;SDS011;29973;43.742;1.236;2022-07-18T07:14:49;6.72;;;4.10;;
44276;SDS011;29973;43.742;1.236;2022-07-18T07:17:15;15.88;;;3.95;;
44276;SDS011;29973;43.742;1.236;2022-07-18T07:19:41;7.85;;;3.97;;
44276;SDS011;29973;43.742;1.236;2022-07-18T07:22:06;7.55;;;4.35;;
44276;SDS011;29973;43.742;1.236;2022-07-18T07:24:32;4.93;;;3.67;;
44276;SDS011;29973;43.742;1.236;2022-07-18T07:26:58;5.53;;;3.95;;
44276;SDS011;29973;43.742;1.236;2022-07-18T07:29:25;8.38;;;3.72;;
44276;SDS011;29973;43.742;1.236;2022-07-18T07:31:50;9.98;;;4.72;;
44276;SDS011;29973;43.742;1.236;2022-07-18T07:34:16;5.95;;;3.67;;
44276;SDS011;29973;43.742;1.236;2022-07-18T07:36:42;8.20;;;4.18;;
44276;SDS011;29973;43.742;1.236;2022-07-18T07:39:08;7.88;;;4.00;;
44276;SDS011;29973;43.742;1.236;2022-07-18T07:41:33;7.50;;;4.10;;
44276;SDS011;29973;43.742;1.236;2022-07-18T07:43:59;8.63;;;4.03;;
44276;SDS011;29973;43.742;1.236;2022-07-18T07:46:26;5.18;;;4.20;;
44276;SDS011;29973;43.742;1.236;2022-07-18T07:48:52;13.07;;;4.30;;
44276;SDS011;29973;43.742;1.236;2022-07-18T07:51:18;7.88;;;4.45;;
44276;SDS011;29973;43.742;1.236;2022-07-18T07:53:43;6.22;;;4.50;;
44276;SDS011;29973;43.742;1.236;2022-07-18T07:56:09;10.35;;;4.43;;
44276;SDS011;29973;43.742;1.236;2022-07-18T07:58:35;12.77;;;4.45;;
44276;SDS011;29973;43.742;1.236;2022-07-18T08:01:01;7.00;;;4.70;;
44276;SDS011;29973;43.742;1.236;2022-07-18T08:03:27;5.13;;;3.95;;
44276;SDS011;29973;43.742;1.236;2022-07-18T08:05:53;7.35;;;3.90;;
44276;SDS011;29973;43.742;1.236;2022-07-18T08:08:19;10.10;;;3.33;;
44276;SDS011;29973;43.742;1.236;2022-07-18T08:10:44;5.45;;;3.58;;
44276;SDS011;29973;43.742;1.236;2022-07-18T08:13:12;4.47;;;3.72;;
44276;SDS011;29973;43.742;1.236;2022-07-18T08:15:38;5.38;;;3.70;;
44276;SDS011;29973;43.742;1.236;2022-07-18T08:18:04;5.75;;;3.88;;
44276;SDS011;29973;43.742;1.236;2022-07-18T08:20:30;6.30;;;4.03;;
44276;SDS011;29973;43.742;1.236;2022-07-18T08:25:26;9.55;;;3.67;;
44276;SDS011;29973;43.742;1.236;2022-07-18T08:27:54;11.02;;;3.88;;
44276;SDS011;29973;43.742;1.236;2022-07-18T08:30:20;5.88;;;3.67;;
44276;SDS011;29973;43.742;1.236;2022-07-18T08:32:46;5.90;;;3.60;;
44276;SDS011;29973;43.742;1.236;2022-07-18T08:35:13;4.13;;;3.45;;
44276;SDS011;29973;43.742;1.236;2022-07-18T08:37:39;7.47;;;3.80;;
44276;SDS011;29973;43.742;1.236;2022-07-18T08:40:05;8.80;;;3.40;;
44276;SDS011;29973;43.742;1.236;2022-07-18T08:42:32;8.43;;;3.72;;
44276;SDS011;29973;43.742;1.236;2022-07-18T08:44:59;4.38;;;3.35;;
44276;SDS011;29973;43.742;1.236;2022-07-18T08:47:26;5.43;;;3.60;;
44276;SDS011;29973;43.742;1.236;2022-07-18T08:49:57;4.75;;;3.40;;
44276;SDS011;29973;43.742;1.236;2022-07-18T08:52:24;5.43;;;3.40;;
44276;SDS011;29973;43.742;1.236;2022-07-18T08:54:50;4.68;;;3.53;;
44276;SDS011;29973;43.742;1.236;2022-07-18T08:57:19;10.13;;;4.03;;
44276;SDS011;29973;43.742;1.236;2022-07-18T08:59:45;5.80;;;3.47;;
44276;SDS011;29973;43.742;1.236;2022-07-18T09:02:14;5.53;;;3.58;;
44276;SDS011;29973;43.742;1.236;2022-07-18T09:04:41;4.43;;;3.25;;
44276;SDS011;29973;43.742;1.236;2022-07-18T09:07:09;8.23;;;3.80;;
44276;SDS011;29973;43.742;1.236;2022-07-18T09:09:54;6.25;;;3.47;;
44276;SDS011;29973;43.742;1.236;2022-07-18T09:12:22;5.70;;;3.35;;
44276;SDS011;29973;43.742;1.236;2022-07-18T09:14:50;10.05;;;3.75;;
44276;SDS011;29973;43.742;1.236;2022-07-18T09:17:17;3.90;;;3.30;;
44276;SDS011;29973;43.742;1.236;2022-07-18T09:20:01;5.45;;;3.10;;
44276;SDS011;29973;43.742;1.236;2022-07-18T09:22:36;6.20;;;3.28;;
44276;SDS011;29973;43.742;1.236;2022-07-18T09:27:36;7.95;;;3.50;;
44276;SDS011;29973;43.742;1.236;2022-07-18T09:37:33;6.05;;;2.78;;
44276;SDS011;29973;43.742;1.236;2022-07-18T09:40:19;5.68;;;2.90;;
44276;SDS011;29973;43.742;1.236;2022-07-18T09:42:51;9.68;;;3.38;;
44276;SDS011;29973;43.742;1.236;2022-07-18T09:45:25;8.50;;;4.10;;
44276;SDS011;29973;43.742;1.236;2022-07-18T09:48:20;7.53;;;3.05;;
44276;SDS011;29973;43.742;1.236;2022-07-18T09:50:50;4.65;;;3.25;;
44276;SDS011;29973;43.742;1.236;2022-07-18T09:53:19;6.43;;;2.95;;
44276;SDS011;29973;43.742;1.236;2022-07-18T09:55:52;6.63;;;3.13;;
44276;SDS011;29973;43.742;1.236;2022-07-18T09:58:21;6.20;;;2.67;;
44276;SDS011;29973;43.742;1.236;2022-07-18T10:00:48;5.32;;;3.05;;
44276;SDS011;29973;43.742;1.236;2022-07-18T10:03:14;7.00;;;2.83;;
44276;SDS011;29973;43.742;1.236;2022-07-18T10:05:42;3.72;;;2.58;;
44276;SDS011;29973;43.742;1.236;2022-07-18T10:08:09;7.80;;;2.78;;
44276;SDS011;29973;43.742;1.236;2022-07-18T10:10:37;11.68;;;3.28;;
44276;SDS011;29973;43.742;1.236;2022-07-18T10:13:04;8.25;;;2.50;;
44276;SDS011;29973;43.742;1.236;2022-07-18T10:15:31;6.68;;;2.83;;
44276;SDS011;29973;43.742;1.236;2022-07-18T10:17:59;5.38;;;2.50;;
44276;SDS011;29973;43.742;1.236;2022-07-18T10:20:29;7.38;;;2.50;;
44276;SDS011;29973;43.742;1.236;2022-07-18T10:23:07;5.43;;;2.85;;
44276;SDS011;29973;43.742;1.236;2022-07-18T10:25:36;3.42;;;2.40;;
44276;SDS011;29973;43.742;1.236;2022-07-18T10:28:12;3.42;;;2.20;;
44276;SDS011;29973;43.742;1.236;2022-07-18T10:30:45;4.97;;;2.45;;
44276;SDS011;29973;43.742;1.236;2022-07-18T10:36:12;7.70;;;2.45;;
44276;SDS011;29973;43.742;1.236;2022-07-18T10:44:49;3.50;;;2.40;;
44276;SDS011;29973;43.742;1.236;2022-07-18T11:03:03;3.35;;;2.20;;
44276;SDS011;29973;43.742;1.236;2022-07-18T11:21:18;7.72;;;2.58;;
44276;SDS011;29973;43.742;1.236;2022-07-18T11:23:47;7.50;;;2.10;;
44276;SDS011;29973;43.742;1.236;2022-07-18T11:26:18;5.32;;;2.05;;
44276;SDS011;29973;43.742;1.236;2022-07-18T11:28:49;9.73;;;2.42;;
44276;SDS011;29973;43.742;1.236;2022-07-18T11:31:25;2.30;;;2.10;;
44276;SDS011;29973;43.742;1.236;2022-07-18T11:33:52;3.45;;;2.50;;
44276;SDS011;29973;43.742;1.236;2022-07-18T11:36:19;3.55;;;2.08;;
44276;SDS011;29973;43.742;1.236;2022-07-18T11:38:56;2.88;;;2.25;;
44276;SDS011;29973;43.742;1.236;2022-07-18T11:41:25;4.70;;;2.10;;
44276;SDS011;29973;43.742;1.236;2022-07-18T11:43:52;21.10;;;2.90;;
44276;SDS011;29973;43.742;1.236;2022-07-18T11:46:20;5.18;;;2.60;;
44276;SDS011;29973;43.742;1.236;2022-07-18T11:48:48;3.53;;;2.05;;
44276;SDS011;29973;43.742;1.236;2022-07-18T11:51:22;4.85;;;2.17;;
44276;SDS011;29973;43.742;1.236;2022-07-18T11:53:52;2.40;;;2.17;;
44276;SDS011;29973;43.742;1.236;2022-07-18T11:56:19;6.28;;;2.50;;
44276;SDS011;29973;43.742;1.236;2022-07-18T11:58:47;5.03;;;1.98;;
44276;SDS011;29973;43.742;1.236;2022-07-18T12:01:14;4.57;;;1.85;;
44276;SDS011;29973;43.742;1.236;2022-07-18T12:03:44;5.07;;;2.00;;
44276;SDS011;29973;43.742;1.236;2022-07-18T12:08:42;6.50;;;2.67;;
44276;SDS011;29973;43.742;1.236;2022-07-18T12:18:51;5.32;;;2.55;;
44276;SDS011;29973;43.742;1.236;2022-07-18T12:21:18;6.70;;;2.22;;
44276;SDS011;29973;43.742;1.236;2022-07-18T12:23:44;2.83;;;2.15;;
44276;SDS011;29973;43.742;1.236;2022-07-18T12:26:25;5.00;;;2.63;;
44276;SDS011;29973;43.742;1.236;2022-07-18T12:29:07;5.20;;;2.10;;
44276;SDS011;29973;43.742;1.236;2022-07-18T12:31:39;9.63;;;2.30;;
44276;SDS011;29973;43.742;1.236;2022-07-18T12:34:10;4.63;;;2.33;;
44276;SDS011;29973;43.742;1.236;2022-07-18T12:36:53;2.80;;;2.30;;
44276;SDS011;29973;43.742;1.236;2022-07-18T12:39:26;8.00;;;2.78;;
44276;SDS011;29973;43.742;1.236;2022-07-18T12:41:53;4.72;;;2.65;;
44276;SDS011;29973;43.742;1.236;2022-07-18T12:44:18;4.63;;;2.10;;
44276;SDS011;29973;43.742;1.236;2022-07-18T12:46:44;2.47;;;2.28;;
44276;SDS011;29973;43.742;1.236;2022-07-18T12:49:10;7.65;;;2.55;;
44276;SDS011;29973;43.742;1.236;2022-07-18T12:51:35;6.65;;;3.03;;
44276;SDS011;29973;43.742;1.236;2022-07-18T12:54:01;5.93;;;2.33;;
44276;SDS011;29973;43.742;1.236;2022-07-18T12:56:27;6.55;;;2.67;;
44276;SDS011;29973;43.742;1.236;2022-07-18T12:58:53;6.47;;;2.75;;
44276;SDS011;29973;43.742;1.236;2022-07-18T13:01:18;4.20;;;2.20;;
44276;SDS011;29973;43.742;1.236;2022-07-18T13:03:44;4.00;;;2.45;;
44276;SDS011;29973;43.742;1.236;2022-07-18T13:06:10;8.20;;;2.42;;
44276;SDS011;29973;43.742;1.236;2022-07-18T13:08:36;3.75;;;2.70;;
44276;SDS011;29973;43.742;1.236;2022-07-18T13:11:01;2.28;;;2.05;;
44276;SDS011;29973;43.742;1.236;2022-07-18T13:13:27;5.28;;;2.50;;
44276;SDS011;29973;43.742;1.236;2022-07-18T13:15:53;6.22;;;2.95;;
44276;SDS011;29973;43.742;1.236;2022-07-18T13:18:18;6.45;;;2.45;;
44276;SDS011;29973;43.742;1.236;2022-07-18T13:20:44;3.83;;;2.63;;
44276;SDS011;29973;43.742;1.236;2022-07-18T13:23:10;4.13;;;2.33;;
44276;SDS011;29973;43.742;1.236;2022-07-18T13:25:37;3.65;;;2.40;;
44276;SDS011;29973;43.742;1.236;2022-07-18T13:28:02;3.63;;;2.40;;
44276;SDS011;29973;43.742;1.236;2022-07-18T13:30:28;4.43;;;2.17;;
44276;SDS011;29973;43.742;1.236;2022-07-18T13:32:54;6.03;;;2.50;;
44276;SDS011;29973;43.742;1.236;2022-07-18T13:35:20;5.63;;;2.13;;
44276;SDS011;29973;43.742;1.236;2022-07-18T13:37:46;3.75;;;2.40;;
44276;SDS011;29973;43.742;1.236;2022-07-18T13:40:12;3.67;;;2.10;;
44276;SDS011;29973;43.742;1.236;2022-07-18T13:42:39;4.10;;;2.17;;
44276;SDS011;29973;43.742;1.236;2022-07-18T13:45:05;3.58;;;2.10;;
44276;SDS011;29973;43.742;1.236;2022-07-18T13:47:31;6.22;;;2.40;;
44276;SDS011;29973;43.742;1.236;2022-07-18T13:49:57;3.08;;;2.17;;
44276;SDS011;29973;43.742;1.236;2022-07-18T13:52:23;3.88;;;2.13;;
44276;SDS011;29973;43.742;1.236;2022-07-18T13:54:49;6.03;;;2.38;;
44276;SDS011;29973;43.742;1.236;2022-07-18T13:57:18;7.20;;;2.05;;
44276;SDS011;29973;43.742;1.236;2022-07-18T13:59:43;9.48;;;2.67;;
44276;SDS011;29973;43.742;1.236;2022-07-18T14:02:09;2.95;;;2.25;;
44276;SDS011;29973;43.742;1.236;2022-07-18T14:04:35;6.20;;;2.47;;
44276;SDS011;29973;43.742;1.236;2022-07-18T14:07:00;7.13;;;2.45;;
44276;SDS011;29973;43.742;1.236;2022-07-18T14:09:27;2.63;;;2.13;;
44276;SDS011;29973;43.742;1.236;2022-07-18T14:11:52;4.55;;;2.40;;
44276;SDS011;29973;43.742;1.236;2022-07-18T14:14:18;3.20;;;2.47;;
44276;SDS011;29973;43.742;1.236;2022-07-18T14:16:44;3.80;;;2.15;;
44276;SDS011;29973;43.742;1.236;2022-07-18T14:19:09;5.55;;;2.60;;
44276;SDS011;29973;43.742;1.236;2022-07-18T14:21:35;5.50;;;2.30;;
44276;SDS011;29973;43.742;1.236;2022-07-18T14:24:01;2.97;;;2.30;;
44276;SDS011;29973;43.742;1.236;2022-07-18T14:26:27;3.85;;;2.35;;
44276;SDS011;29973;43.742;1.236;2022-07-18T14:28:53;3.47;;;1.90;;
44276;SDS011;29973;43.742;1.236;2022-07-18T14:31:18;2.70;;;1.90;;
44276;SDS011;29973;43.742;1.236;2022-07-18T14:33:44;2.63;;;1.77;;
44276;SDS011;29973;43.742;1.236;2022-07-18T14:36:10;2.63;;;2.30;;
44276;SDS011;29973;43.742;1.236;2022-07-18T14:38:35;6.90;;;2.17;;
44276;SDS011;29973;43.742;1.236;2022-07-18T14:41:01;2.90;;;2.30;;
44276;SDS011;29973;43.742;1.236;2022-07-18T14:43:27;5.22;;;1.77;;
44276;SDS011;29973;43.742;1.236;2022-07-18T14:45:52;3.65;;;1.95;;
44276;SDS011;29973;43.742;1.236;2022-07-18T14:48:18;6.85;;;1.92;;
44276;SDS011;29973;43.742;1.236;2022-07-18T14:50:44;4.22;;;2.15;;
44276;SDS011;29973;43.742;1.236;2022-07-18T14:53:10;5.05;;;2.17;;
44276;SDS011;29973;43.742;1.236;2022-07-18T14:55:35;4.72;;;2.25;;
44276;SDS011;29973;43.742;1.236;2022-07-18T14:58:01;3.92;;;2.30;;
44276;SDS011;29973;43.742;1.236;2022-07-18T15:00:28;2.53;;;1.77;;
44276;SDS011;29973;43.742;1.236;2022-07-18T15:02:54;5.20;;;1.83;;
44276;SDS011;29973;43.742;1.236;2022-07-18T15:05:19;2.95;;;1.65;;
44276;SDS011;29973;43.742;1.236;2022-07-18T15:07:46;1.95;;;1.73;;
44276;SDS011;29973;43.742;1.236;2022-07-18T15:10:12;3.95;;;2.15;;
44276;SDS011;29973;43.742;1.236;2022-07-18T15:12:37;2.22;;;1.88;;
44276;SDS011;29973;43.742;1.236;2022-07-18T15:15:04;3.47;;;2.00;;
44276;SDS011;29973;43.742;1.236;2022-07-18T15:17:30;2.85;;;1.95;;
44276;SDS011;29973;43.742;1.236;2022-07-18T15:19:56;2.55;;;2.10;;
44276;SDS011;29973;43.742;1.236;2022-07-18T15:22:22;2.20;;;2.00;;
44276;SDS011;29973;43.742;1.236;2022-07-18T15:24:47;3.67;;;2.53;;
44276;SDS011;29973;43.742;1.236;2022-07-18T15:27:13;5.57;;;2.10;;
44276;SDS011;29973;43.742;1.236;2022-07-18T15:29:39;5.10;;;2.22;;
44276;SDS011;29973;43.742;1.236;2022-07-18T15:32:05;4.70;;;2.47;;
44276;SDS011;29973;43.742;1.236;2022-07-18T15:34:33;4.07;;;2.42;;
44276;SDS011;29973;43.742;1.236;2022-07-18T15:37:03;3.55;;;2.10;;
44276;SDS011;29973;43.742;1.236;2022-07-18T15:39:29;4.07;;;2.28;;
44276;SDS011;29973;43.742;1.236;2022-07-18T15:41:56;4.63;;;2.40;;
44276;SDS011;29973;43.742;1.236;2022-07-18T15:44:22;6.18;;;2.35;;
44276;SDS011;29973;43.742;1.236;2022-07-18T15:46:47;3.83;;;2.15;;
44276;SDS011;29973;43.742;1.236;2022-07-18T15:49:13;5.13;;;2.15;;
44276;SDS011;29973;43.742;1.236;2022-07-18T15:51:39;4.30;;;2.50;;